Time;durP1;ratioP1;P1;durP2;ratioP2;P2;SDS_P1;SDS_P2;PMS_P1;PMS_P2;Temp;Humidity;BMP_temperature;BMP_pressure;BME280_temperature;BME280_humidity;BME280_pressure;Samples;Min_cycle;Max_cycle;Signal;HPM_P1;HPM_P2
2021/05/23 00:00:45;;;;;;;11.65;6.72;;;9.40;99.90;;;;;;4978222;28;20070;-82
2021/05/23 00:03:15;;;;;;;13.27;7.32;;;9.40;99.90;;;;;;4970678;28;20042;-82
2021/05/23 00:05:42;;;;;;;14.38;8.05;;;9.40;99.90;;;;;;4970704;28;20043;-82
2021/05/23 00:08:16;;;;;;;16.13;8.57;;;9.40;99.90;;;;;;4970687;28;20081;-82
2021/05/23 00:10:47;;;;;;;14.52;7.93;;;9.40;99.90;;;;;;4988192;28;20058;-82
2021/05/23 00:13:15;;;;;;;14.27;8.57;;;9.50;99.90;;;;;;4986897;28;20070;-83
2021/05/23 00:15:43;;;;;;;15.07;8.48;;;9.50;99.90;;;;;;4987413;28;20031;-82
2021/05/23 00:18:10;;;;;;;17.65;8.23;;;9.50;99.90;;;;;;4970620;28;20039;-83
2021/05/23 00:20:37;;;;;;;13.77;8.57;;;9.50;99.90;;;;;;4970812;28;20090;-82
2021/05/23 00:23:04;;;;;;;17.77;10.68;;;9.50;99.90;;;;;;4987703;28;20041;-82
2021/05/23 00:25:30;;;;;;;17.88;10.93;;;9.40;99.90;;;;;;4999306;28;20069;-81
2021/05/23 00:27:56;;;;;;;17.42;9.77;;;9.40;99.90;;;;;;4989804;28;20505;-82
2021/05/23 00:30:22;;;;;;;18.60;11.32;;;9.40;99.90;;;;;;5007188;28;20022;-81
2021/05/23 00:32:50;;;;;;;19.20;10.07;;;9.40;99.90;;;;;;4989391;28;20030;-83
2021/05/23 00:35:15;;;;;;;18.50;9.70;;;9.40;99.90;;;;;;4973396;28;20034;-81
2021/05/23 00:37:41;;;;;;;16.52;10.50;;;9.40;99.90;;;;;;5007179;28;20534;-81
2021/05/23 00:40:09;;;;;;;23.05;10.90;;;9.40;99.90;;;;;;4989710;28;20037;-82
2021/05/23 00:42:35;;;;;;;18.73;9.43;;;9.30;99.90;;;;;;4973451;28;20034;-83
2021/05/23 00:45:01;;;;;;;16.25;9.48;;;9.40;99.90;;;;;;5006827;28;20038;-82
2021/05/23 00:47:27;;;;;;;16.35;10.25;;;9.30;99.90;;;;;;4989360;28;20036;-82
2021/05/23 00:49:53;;;;;;;22.10;11.15;;;9.30;99.90;;;;;;5006833;28;20065;-81
2021/05/23 00:52:19;;;;;;;16.77;10.15;;;9.30;99.90;;;;;;5006965;28;20026;-81
2021/05/23 00:54:45;;;;;;;20.30;11.38;;;9.20;99.90;;;;;;4989323;28;20034;-82
2021/05/23 00:57:11;;;;;;;18.65;9.27;;;9.20;99.90;;;;;;4989688;28;20031;-82
2021/05/23 00:59:36;;;;;;;15.20;7.40;;;9.20;99.90;;;;;;4973102;28;20069;-82
2021/05/23 01:02:07;;;;;;;13.20;7.28;;;9.20;99.90;;;;;;4989142;28;20037;-82
2021/05/23 01:04:34;;;;;;;13.18;7.03;;;9.30;99.90;;;;;;4972938;28;20058;-82
2021/05/23 01:07:00;;;;;;;11.13;6.53;;;9.30;99.90;;;;;;4989120;28;20074;-82
2021/05/23 01:09:26;;;;;;;9.77;5.60;;;9.30;99.90;;;;;;4989200;28;20084;-82
2021/05/23 01:11:51;;;;;;;9.02;4.85;;;9.30;99.90;;;;;;5006626;28;20029;-82
2021/05/23 01:14:44;;;;;;;11.38;5.72;;;9.30;99.90;;;;;;4988926;28;20038;-81
2021/05/23 01:17:12;;;;;;;15.00;6.28;;;9.20;99.90;;;;;;5006384;28;20026;-81
2021/05/23 01:20:01;;;;;;;12.90;6.60;;;9.20;99.90;;;;;;4988933;28;20114;-81
2021/05/23 01:22:46;;;;;;;11.57;6.07;;;9.20;99.90;;;;;;4989140;28;20030;-81
2021/05/23 01:25:19;;;;;;;10.10;5.70;;;9.20;99.90;;;;;;4994512;28;20121;-83
2021/05/23 01:27:49;;;;;;;9.88;6.05;;;9.30;99.90;;;;;;5006712;28;20069;-83
2021/05/23 01:30:26;;;;;;;8.25;5.28;;;9.40;99.90;;;;;;5006526;28;20030;-83
2021/05/23 01:32:56;;;;;;;7.60;4.88;;;9.40;99.90;;;;;;4988727;28;20062;-83
2021/05/23 01:35:24;;;;;;;8.55;5.18;;;9.40;99.90;;;;;;5006153;28;20031;-82
2021/05/23 01:37:55;;;;;;;7.72;4.35;;;9.40;99.90;;;;;;5006247;28;20023;-82
2021/05/23 01:40:20;;;;;;;7.35;4.45;;;9.40;99.90;;;;;;5006168;28;20061;-82
2021/05/23 01:42:48;;;;;;;9.85;5.47;;;9.40;99.90;;;;;;4988874;28;20031;-81
2021/05/23 01:45:15;;;;;;;7.30;4.45;;;9.40;99.90;;;;;;4988703;28;20046;-81
2021/05/23 01:47:41;;;;;;;10.43;5.38;;;9.30;99.90;;;;;;5005012;28;20117;-83
2021/05/23 01:50:07;;;;;;;11.70;5.63;;;9.30;99.90;;;;;;4988509;28;20031;-82
2021/05/23 01:52:33;;;;;;;10.77;5.70;;;9.30;99.90;;;;;;4988800;28;20061;-81
2021/05/23 01:54:59;;;;;;;13.50;6.30;;;9.40;99.90;;;;;;4988711;28;20031;-81
2021/05/23 01:57:25;;;;;;;10.27;5.90;;;9.30;99.90;;;;;;5005005;28;20058;-83
2021/05/23 01:59:50;;;;;;;11.38;5.60;;;9.30;99.90;;;;;;5005132;28;20038;-82
2021/05/23 02:02:16;;;;;;;11.27;5.63;;;9.30;99.90;;;;;;5006030;28;20049;-82
2021/05/23 02:04:42;;;;;;;10.88;5.53;;;9.30;99.90;;;;;;5004880;28;20270;-82
2021/05/23 02:07:08;;;;;;;8.43;5.40;;;9.30;99.90;;;;;;4985004;28;20165;-82
2021/05/23 02:09:34;;;;;;;8.75;5.53;;;9.30;99.90;;;;;;4985385;28;20034;-82
2021/05/23 02:12:00;;;;;;;11.35;5.53;;;9.30;99.90;;;;;;4986435;28;20023;-83
2021/05/23 02:14:26;;;;;;;7.68;5.15;;;9.30;99.90;;;;;;4985407;28;20435;-82
2021/05/23 02:16:55;;;;;;;7.85;5.55;;;9.30;99.90;;;;;;4985172;28;20418;-83
2021/05/23 02:19:22;;;;;;;9.55;4.95;;;9.30;99.90;;;;;;4986286;28;20092;-82
2021/05/23 02:21:49;;;;;;;8.98;4.95;;;9.30;99.90;;;;;;4985314;28;20037;-82
2021/05/23 02:24:15;;;;;;;10.15;5.45;;;9.30;99.90;;;;;;4986296;28;20043;-83
2021/05/23 02:26:43;;;;;;;10.50;5.65;;;9.20;99.90;;;;;;4986292;28;20463;-82
2021/05/23 02:29:09;;;;;;;8.50;5.32;;;9.30;99.90;;;;;;4985144;28;20035;-81
2021/05/23 02:31:35;;;;;;;10.77;5.43;;;9.20;99.90;;;;;;4984810;28;20027;-82
2021/05/23 02:34:02;;;;;;;11.75;6.80;;;9.20;99.90;;;;;;4984867;28;20058;-81
2021/05/23 02:36:27;;;;;;;10.77;5.90;;;9.20;99.90;;;;;;4985991;28;20027;-82
2021/05/23 02:38:53;;;;;;;9.80;6.32;;;9.20;99.90;;;;;;4989297;28;20039;-83
2021/05/23 02:41:19;;;;;;;10.40;5.70;;;9.20;99.90;;;;;;4989720;28;20034;-83
2021/05/23 02:43:44;;;;;;;11.40;5.38;;;9.20;99.90;;;;;;4989524;28;20045;-82
2021/05/23 02:46:10;;;;;;;11.75;4.88;;;9.30;99.90;;;;;;4988436;28;20102;-82
2021/05/23 02:48:35;;;;;;;9.77;6.20;;;9.30;99.90;;;;;;4988288;28;20097;-81
2021/05/23 02:51:02;;;;;;;14.77;6.63;;;9.30;99.90;;;;;;4988066;28;20027;-81
2021/05/23 02:53:29;;;;;;;10.90;6.38;;;9.30;99.90;;;;;;4989483;28;20119;-81
2021/05/23 02:55:55;;;;;;;9.20;5.97;;;9.30;99.90;;;;;;4989440;28;20035;-81
2021/05/23 02:58:20;;;;;;;13.35;7.28;;;9.30;99.90;;;;;;4988108;28;20037;-81
2021/05/23 03:00:47;;;;;;;9.25;6.25;;;9.30;99.90;;;;;;4988235;28;20065;-80
2021/05/23 03:03:14;;;;;;;10.57;6.65;;;9.30;99.90;;;;;;4989149;28;20106;-82
2021/05/23 03:05:41;;;;;;;13.75;6.70;;;9.20;99.90;;;;;;4987851;28;20023;-81
2021/05/23 03:08:07;;;;;;;9.23;6.60;;;9.30;99.90;;;;;;5004112;28;20410;-81
2021/05/23 03:10:39;;;;;;;14.45;6.75;;;9.30;99.90;;;;;;4988268;28;20462;-81
2021/05/23 03:13:07;;;;;;;10.35;7.05;;;9.30;99.90;;;;;;4989279;28;20031;-80
2021/05/23 03:15:33;;;;;;;9.48;6.47;;;9.30;99.90;;;;;;4989332;28;20043;-80
2021/05/23 03:17:59;;;;;;;12.27;7.70;;;9.20;99.90;;;;;;4987854;28;20038;-81
2021/05/23 03:20:27;;;;;;;12.27;7.72;;;9.20;99.90;;;;;;4989088;28;20106;-81
2021/05/23 03:22:54;;;;;;;13.00;7.75;;;9.30;99.90;;;;;;4987687;28;20027;-81
2021/05/23 03:25:21;;;;;;;12.68;8.13;;;9.20;99.90;;;;;;4984433;28;20066;-81
2021/05/23 03:27:47;;;;;;;14.13;8.60;;;9.30;99.90;;;;;;4968309;29;20019;-81
2021/05/23 03:30:18;;;;;;;11.80;7.90;;;9.20;99.90;;;;;;4968448;29;20208;-81
2021/05/23 03:32:44;;;;;;;12.10;8.35;;;9.20;99.90;;;;;;4981994;28;20039;-82
2021/05/23 03:35:10;;;;;;;13.80;8.57;;;9.20;99.90;;;;;;5003575;28;20093;-81
2021/05/23 03:37:37;;;;;;;15.48;8.75;;;9.20;99.90;;;;;;4988731;28;20038;-81
2021/05/23 03:40:07;;;;;;;14.55;8.27;;;9.30;99.90;;;;;;4987683;28;20059;-80
2021/05/23 03:42:33;;;;;;;15.52;8.80;;;9.20;99.90;;;;;;4971250;28;20138;-81
2021/05/23 03:44:59;;;;;;;12.95;8.45;;;9.20;99.90;;;;;;4988864;28;20055;-81
2021/05/23 03:47:25;;;;;;;13.48;9.02;;;9.10;99.90;;;;;;4987430;28;20380;-81
2021/05/23 03:49:50;;;;;;;14.32;9.40;;;9.10;99.90;;;;;;4987245;28;20121;-82
2021/05/23 03:52:16;;;;;;;15.30;9.02;;;9.10;99.90;;;;;;4988408;28;20443;-81
2021/05/23 03:54:42;;;;;;;15.70;9.23;;;9.10;99.90;;;;;;4988558;28;20034;-82
2021/05/23 03:57:08;;;;;;;12.38;8.60;;;9.20;99.90;;;;;;4987117;28;20487;-80
2021/05/23 03:59:34;;;;;;;14.07;9.15;;;9.20;99.90;;;;;;4988601;28;20379;-81
2021/05/23 04:01:59;;;;;;;17.02;10.32;;;9.20;99.90;;;;;;4987106;28;20102;-82
2021/05/23 04:04:35;;;;;;;16.20;10.30;;;9.30;99.90;;;;;;4988404;28;20042;-82
2021/05/23 04:07:01;;;;;;;15.65;9.80;;;9.30;99.90;;;;;;4995849;28;20046;-82
2021/05/23 04:09:26;;;;;;;15.23;9.90;;;9.40;99.90;;;;;;5007567;28;20061;-83
2021/05/23 04:11:52;;;;;;;16.05;10.52;;;9.40;99.90;;;;;;5007556;28;20040;-81
2021/05/23 04:14:18;;;;;;;15.93;9.75;;;9.40;99.90;;;;;;4973769;28;20045;-82
2021/05/23 04:16:43;;;;;;;15.90;10.38;;;9.40;99.90;;;;;;4989593;28;20034;-80
2021/05/23 04:19:09;;;;;;;18.83;10.20;;;9.40;99.90;;;;;;5005594;28;20031;-82
2021/05/23 04:21:36;;;;;;;18.30;10.73;;;9.50;99.90;;;;;;5006720;28;20033;-82
2021/05/23 04:24:03;;;;;;;16.60;10.63;;;9.50;99.90;;;;;;5006473;28;20042;-81
2021/05/23 04:26:28;;;;;;;14.77;10.57;;;9.50;99.90;;;;;;5006755;28;20044;-82
2021/05/23 04:28:54;;;;;;;15.68;10.65;;;9.60;99.90;;;;;;4989141;28;20034;-81
2021/05/23 04:31:19;;;;;;;18.42;12.35;;;9.60;99.90;;;;;;4988894;28;20074;-81
2021/05/23 04:33:45;;;;;;;21.13;13.27;;;9.60;99.90;;;;;;4988912;28;20056;-81
2021/05/23 04:36:11;;;;;;;20.67;12.98;;;9.60;99.90;;;;;;4989052;28;20096;-81
2021/05/23 04:38:37;;;;;;;20.48;11.98;;;9.60;99.90;;;;;;5006283;28;20026;-82
2021/05/23 04:41:03;;;;;;;19.08;12.80;;;9.60;99.90;;;;;;5005133;28;20044;-81
2021/05/23 04:43:28;;;;;;;23.13;14.68;;;9.70;99.90;;;;;;4988653;28;20061;-83
2021/05/23 04:45:55;;;;;;;20.35;13.45;;;9.70;99.90;;;;;;5006465;28;20046;-82
2021/05/23 04:48:20;;;;;;;24.00;15.20;;;9.70;99.90;;;;;;4988723;28;20437;-81
2021/05/23 04:50:46;;;;;;;20.10;13.25;;;9.80;99.90;;;;;;5004946;28;20026;-81
2021/05/23 04:53:12;;;;;;;28.77;18.67;;;9.90;99.90;;;;;;4988344;28;20034;-81
2021/05/23 04:55:38;;;;;;;25.65;16.65;;;9.90;99.90;;;;;;5006217;28;20026;-81
2021/05/23 04:58:04;;;;;;;29.75;18.55;;;9.90;99.90;;;;;;5004909;28;20042;-79
2021/05/23 05:00:29;;;;;;;29.75;19.73;;;10.00;99.90;;;;;;4988252;28;20031;-81
2021/05/23 05:02:55;;;;;;;30.50;20.98;;;10.10;99.90;;;;;;4988179;28;20037;-82
2021/05/23 05:05:21;;;;;;;34.80;23.05;;;10.10;99.90;;;;;;5005840;28;20045;-81
2021/05/23 05:07:47;;;;;;;35.88;20.92;;;10.20;99.90;;;;;;5005895;28;20089;-82
2021/05/23 05:10:13;;;;;;;35.20;21.95;;;10.20;99.90;;;;;;5005897;28;20511;-83
2021/05/23 05:12:39;;;;;;;34.78;21.83;;;10.20;99.90;;;;;;4988711;28;20022;-82
2021/05/23 05:15:06;;;;;;;34.63;23.08;;;10.20;99.90;;;;;;5005641;28;20094;-82
2021/05/23 05:17:32;;;;;;;35.60;23.10;;;10.20;99.90;;;;;;4988688;28;20045;-82
2021/05/23 05:19:57;;;;;;;33.78;21.15;;;10.30;99.90;;;;;;5006116;28;20030;-82
2021/05/23 05:22:23;;;;;;;39.78;24.23;;;10.30;99.90;;;;;;5005901;28;20038;-81
2021/05/23 05:24:49;;;;;;;36.30;22.38;;;10.20;99.90;;;;;;5005600;28;20038;-81
2021/05/23 05:27:14;;;;;;;35.92;22.95;;;10.30;99.90;;;;;;4988333;28;20054;-82
2021/05/23 05:29:40;;;;;;;36.50;23.65;;;10.30;99.90;;;;;;4991232;28;20030;-81
2021/05/23 05:32:06;;;;;;;37.40;23.85;;;10.30;99.90;;;;;;5007388;28;20538;-81
2021/05/23 05:34:31;;;;;;;39.20;25.45;;;10.30;99.90;;;;;;4995678;28;20030;-81
2021/05/23 05:36:57;;;;;;;42.08;25.63;;;10.30;99.90;;;;;;4971892;28;20066;-83
2021/05/23 05:39:23;;;;;;;42.65;26.38;;;10.20;99.90;;;;;;4988323;28;20046;-82
2021/05/23 05:41:48;;;;;;;37.00;23.75;;;10.20;99.90;;;;;;4988328;28;20034;-83
2021/05/23 05:44:14;;;;;;;35.85;21.95;;;10.20;99.90;;;;;;4988072;28;20110;-82
2021/05/23 05:46:40;;;;;;;33.92;22.30;;;10.20;99.90;;;;;;4972249;28;20029;-84
2021/05/23 05:49:05;;;;;;;33.30;22.05;;;10.20;99.90;;;;;;4988363;28;20030;-83
2021/05/23 05:51:31;;;;;;;29.88;19.13;;;10.20;99.90;;;;;;4988240;28;20078;-83
2021/05/23 05:53:56;;;;;;;30.75;20.38;;;10.20;99.90;;;;;;5005417;28;20034;-83
2021/05/23 05:56:22;;;;;;;24.40;16.48;;;10.20;99.90;;;;;;4988222;28;20039;-81
2021/05/23 05:58:48;;;;;;;18.60;13.35;;;10.20;99.90;;;;;;5003041;28;20031;-81
2021/05/23 06:01:13;;;;;;;20.48;13.50;;;10.20;99.90;;;;;;4971552;28;20034;-80
2021/05/23 06:03:39;;;;;;;20.17;13.70;;;10.00;99.90;;;;;;4987648;28;20042;-81
2021/05/23 06:06:04;;;;;;;17.85;12.65;;;10.00;99.90;;;;;;5004973;28;20037;-81
2021/05/23 06:08:30;;;;;;;19.00;12.25;;;10.10;99.90;;;;;;5005045;28;20487;-81
2021/05/23 06:10:56;;;;;;;17.77;11.48;;;10.10;99.90;;;;;;5005112;28;20030;-81
2021/05/23 06:13:21;;;;;;;14.90;11.07;;;10.20;99.90;;;;;;4970062;28;20029;-81
2021/05/23 06:15:47;;;;;;;18.23;11.90;;;10.30;99.90;;;;;;4975309;28;20037;-81
2021/05/23 06:18:13;;;;;;;19.80;13.43;;;10.30;99.90;;;;;;4975220;28;20461;-80
2021/05/23 06:20:38;;;;;;;21.98;15.80;;;10.40;99.90;;;;;;4991366;28;20034;-80
2021/05/23 06:23:04;;;;;;;27.27;18.58;;;10.40;99.90;;;;;;5008864;28;20049;-81
2021/05/23 06:25:30;;;;;;;29.50;18.23;;;10.30;99.90;;;;;;5007470;28;20042;-81
2021/05/23 06:27:55;;;;;;;27.23;18.00;;;10.40;99.90;;;;;;5009111;28;20030;-81
2021/05/23 06:30:21;;;;;;;30.15;18.13;;;10.40;99.90;;;;;;4972748;28;20069;-81
2021/05/23 06:32:47;;;;;;;22.95;15.60;;;10.40;99.90;;;;;;4981490;28;20038;-81
2021/05/23 06:35:14;;;;;;;27.85;16.95;;;10.40;99.90;;;;;;4971464;28;20070;-81
2021/05/23 06:37:40;;;;;;;23.85;17.60;;;10.50;99.90;;;;;;4988110;28;20030;-81
2021/05/23 06:40:07;;;;;;;25.40;17.20;;;10.40;99.90;;;;;;4988984;28;20387;-82
2021/05/23 06:42:33;;;;;;;27.05;17.48;;;10.40;99.90;;;;;;4955542;28;20039;-81
2021/05/23 06:44:59;;;;;;;21.77;16.75;;;10.40;99.90;;;;;;4964270;28;20068;-80
2021/05/23 06:47:24;;;;;;;25.52;16.80;;;10.40;99.90;;;;;;4990564;28;20030;-81
2021/05/23 06:49:50;;;;;;;21.38;14.20;;;10.60;99.90;;;;;;4991021;28;20038;-81
2021/05/23 06:52:16;;;;;;;21.52;12.90;;;10.70;99.90;;;;;;4991129;28;20035;-81
2021/05/23 06:54:41;;;;;;;13.45;9.90;;;10.70;99.90;;;;;;4974889;28;20034;-81
2021/05/23 06:57:07;;;;;;;22.15;12.75;;;10.80;99.90;;;;;;5008522;28;20501;-81
2021/05/23 06:59:33;;;;;;;19.70;11.77;;;10.70;99.90;;;;;;4991238;28;20038;-81
2021/05/23 07:01:58;;;;;;;24.50;12.07;;;10.60;99.90;;;;;;5008782;28;20034;-81
2021/05/23 07:04:24;;;;;;;26.85;10.02;;;10.50;99.90;;;;;;4974593;28;20038;-81
2021/05/23 07:06:50;;;;;;;15.27;8.50;;;10.50;99.90;;;;;;5007729;28;20042;-81
2021/05/23 07:09:16;;;;;;;15.13;8.85;;;10.60;99.90;;;;;;4990603;28;20084;-82
2021/05/23 07:11:42;;;;;;;15.52;8.82;;;10.50;99.90;;;;;;4990639;28;20467;-80
2021/05/23 07:14:07;;;;;;;15.60;8.98;;;10.40;99.90;;;;;;4990506;28;20447;-80
2021/05/23 07:16:33;;;;;;;13.70;8.63;;;10.40;99.90;;;;;;4990413;28;20109;-80
2021/05/23 07:18:59;;;;;;;19.15;9.00;;;10.40;99.90;;;;;;4990658;28;20054;-81
2021/05/23 07:21:25;;;;;;;12.18;6.97;;;10.60;99.90;;;;;;5008733;28;20120;-80
2021/05/23 07:23:50;;;;;;;14.70;7.32;;;10.60;99.90;;;;;;4988091;28;20049;-81
2021/05/23 07:26:16;;;;;;;21.13;8.05;;;10.70;99.90;;;;;;4996020;28;20026;-80
2021/05/23 07:28:42;;;;;;;15.23;7.55;;;10.80;99.90;;;;;;4980293;28;20041;-80
2021/05/23 07:31:08;;;;;;;13.63;7.65;;;10.80;99.90;;;;;;4989097;28;20037;-80
2021/05/23 07:33:33;;;;;;;17.02;7.90;;;10.70;99.90;;;;;;5007404;28;20045;-80
2021/05/23 07:35:59;;;;;;;13.82;8.25;;;10.90;99.90;;;;;;4989757;28;20068;-80
2021/05/23 07:38:25;;;;;;;22.42;9.73;;;11.00;99.90;;;;;;4989915;28;20133;-81
2021/05/23 07:40:50;;;;;;;17.02;8.75;;;10.90;99.90;;;;;;4989911;28;20041;-80
2021/05/23 07:43:16;;;;;;;15.35;6.43;;;10.90;99.90;;;;;;5007234;28;20026;-81
2021/05/23 07:45:42;;;;;;;14.98;7.80;;;10.90;99.90;;;;;;4973780;28;20125;-81
2021/05/23 07:48:08;;;;;;;9.07;5.95;;;10.70;99.90;;;;;;4989776;28;20030;-81
2021/05/23 07:50:34;;;;;;;11.57;5.38;;;10.70;99.90;;;;;;5007365;28;20057;-80
2021/05/23 07:53:02;;;;;;;9.15;5.35;;;10.70;99.90;;;;;;5005825;28;20057;-80
2021/05/23 07:55:28;;;;;;;16.25;5.97;;;10.80;99.90;;;;;;4989737;28;20058;-80
2021/05/23 07:57:53;;;;;;;12.18;6.43;;;10.70;99.90;;;;;;4989299;28;20069;-80
2021/05/23 08:00:19;;;;;;;10.60;5.70;;;10.80;99.90;;;;;;5007253;28;20030;-80
2021/05/23 08:02:45;;;;;;;12.10;4.95;;;10.90;99.90;;;;;;5006922;28;20042;-79
2021/05/23 08:08:31;;;;;;;;;;;11.10;99.90;;;;;;4962403;29;20052;-80
2021/05/23 08:10:56;;;;;;;8.52;4.22;;;11.20;99.90;;;;;;4947834;29;19911;-80
2021/05/23 08:13:22;;;;;;;8.02;4.10;;;11.10;99.90;;;;;;4948878;29;20099;-80
2021/05/23 08:15:48;;;;;;;9.68;3.33;;;11.20;99.90;;;;;;4931971;29;20024;-80
2021/05/23 08:18:18;;;;;;;12.05;4.85;;;11.30;99.90;;;;;;4931686;29;20035;-80
2021/05/23 08:20:44;;;;;;;;;;;11.20;99.90;;;;;;4932059;29;20032;-81
2021/05/23 08:23:09;;;;;;;5.82;3.97;;;11.40;99.90;;;;;;4947994;29;19911;-80
2021/05/23 08:25:35;;;;;;;8.40;3.63;;;11.60;99.90;;;;;;4932171;29;20040;-80
2021/05/23 08:28:08;;;;;;;5.65;3.30;;;11.70;99.90;;;;;;4949470;29;20119;-80
2021/05/23 08:30:33;;;;;;;7.43;4.88;;;11.80;99.90;;;;;;4948089;29;20043;-81
2021/05/23 08:32:59;;;;;;;8.45;3.70;;;11.70;99.90;;;;;;4947143;29;20040;-80
2021/05/23 08:35:25;;;;;;;10.00;4.10;;;12.00;99.90;;;;;;4940695;29;20035;-80
2021/05/23 08:37:53;;;;;;;8.90;3.85;;;11.80;99.90;;;;;;4947240;29;20031;-81
2021/05/23 08:40:18;;;;;;;10.00;5.13;;;11.70;99.90;;;;;;4931399;29;20027;-80
2021/05/23 08:42:45;;;;;;;10.90;4.28;;;11.60;99.90;;;;;;4930943;29;20503;-80
2021/05/23 08:45:12;;;;;;;7.45;3.63;;;11.60;99.90;;;;;;4947159;29;20055;-81
2021/05/23 08:47:41;;;;;;;7.88;4.22;;;11.90;99.90;;;;;;4963026;29;20047;-81
2021/05/23 08:50:07;;;;;;;6.50;3.47;;;11.90;99.90;;;;;;4947920;29;20145;-79
2021/05/23 08:52:33;;;;;;;7.97;3.47;;;12.00;99.90;;;;;;4945800;29;20038;-80
2021/05/23 08:55:00;;;;;;;10.20;4.55;;;12.00;99.90;;;;;;4946759;29;20035;-81
2021/05/23 08:57:29;;;;;;;8.32;4.68;;;11.90;99.90;;;;;;4940033;29;20404;-80
2021/05/23 08:59:54;;;;;;;7.70;4.28;;;12.20;99.90;;;;;;4946719;29;20028;-81
2021/05/23 09:02:20;;;;;;;6.22;3.65;;;12.60;99.90;;;;;;4947197;29;20555;-81
2021/05/23 09:04:47;;;;;;;9.10;5.03;;;12.60;99.90;;;;;;4946246;29;20074;-80
2021/05/23 09:07:13;;;;;;;10.85;4.88;;;12.20;99.90;;;;;;4945999;29;20055;-81
2021/05/23 09:09:47;;;;;;;7.32;3.65;;;12.20;99.90;;;;;;4930732;29;20039;-80
2021/05/23 09:12:22;;;;;;;6.60;4.00;;;12.20;99.90;;;;;;4919244;29;20028;-80
2021/05/23 09:14:50;;;;;;;9.82;4.38;;;12.50;99.90;;;;;;4940391;29;20031;-81
2021/05/23 09:17:24;;;;;;;8.07;4.28;;;12.20;99.90;;;;;;4930419;29;20103;-82
2021/05/23 09:19:50;;;;;;;6.32;3.28;;;12.30;99.90;;;;;;4945781;29;20066;-80
2021/05/23 09:22:19;;;;;;;5.32;3.00;;;12.40;99.90;;;;;;4946452;29;20036;-80
2021/05/23 09:24:53;;;;;;;7.50;3.00;;;12.20;99.90;;;;;;4947420;29;20083;-81
2021/05/23 09:27:23;;;;;;;3.85;2.00;;;12.20;99.90;;;;;;4945083;29;20034;-81
2021/05/23 09:30:12;;;;;;;5.38;2.45;;;12.60;99.90;;;;;;4947282;29;20081;-80
2021/05/23 09:32:40;;;;;;;8.18;2.95;;;12.90;99.90;;;;;;4946947;29;20031;-81
2021/05/23 09:35:10;;;;;;;5.30;1.73;;;13.00;99.90;;;;;;4945504;29;20028;-80
2021/05/23 09:37:36;;;;;;;6.43;2.67;;;13.40;99.90;;;;;;4945633;29;20054;-80
2021/05/23 09:40:22;;;;;;;5.30;1.60;;;13.00;99.90;;;;;;4946241;29;20040;-81
2021/05/23 09:42:53;;;;;;;6.25;1.88;;;13.10;99.90;;;;;;4946043;29;20058;-81
2021/05/23 09:45:20;;;;;;;7.63;1.77;;;12.80;99.90;;;;;;4945859;29;20051;-81
2021/05/23 09:48:06;;;;;;;7.53;0.95;;;13.00;99.90;;;;;;4935024;29;20491;-81
2021/05/23 09:50:43;;;;;;;7.10;0.90;;;13.60;99.90;;;;;;4934522;29;20032;-79
2021/05/23 09:53:17;;;;;;;4.47;0.95;;;13.20;99.90;;;;;;4952318;29;20038;-80
2021/05/23 09:56:01;;;;;;;4.90;0.90;;;12.70;99.90;;;;;;4950413;29;20032;-81
2021/05/23 09:58:30;;;;;;;7.45;0.80;;;12.20;99.90;;;;;;4950942;29;20494;-80
2021/05/23 10:00:59;;;;;;;5.65;0.68;;;12.20;99.90;;;;;;4936118;29;20061;-79
2021/05/23 10:03:27;;;;;;;2.15;0.60;;;12.30;99.90;;;;;;4946858;29;20697;-79
2021/05/23 10:05:55;;;;;;;4.95;1.08;;;12.40;99.90;;;;;;4948134;29;20492;-80
2021/05/23 10:08:21;;;;;;;5.63;1.02;;;12.30;99.90;;;;;;4951960;29;20032;-80
2021/05/23 10:10:48;;;;;;;7.22;1.00;;;12.20;99.90;;;;;;4933575;29;20063;-80
2021/05/23 10:13:18;;;;;;;5.85;0.60;;;12.40;99.90;;;;;;4951861;29;20046;-80
2021/05/23 10:15:43;;;;;;;2.58;0.68;;;12.40;99.90;;;;;;4961514;29;20067;-79
2021/05/23 10:18:10;;;;;;;3.20;0.50;;;12.30;99.90;;;;;;4946640;29;20031;-79
2021/05/23 10:20:37;;;;;;;5.00;0.70;;;12.30;99.90;;;;;;4960916;29;20036;-79
2021/05/23 10:23:31;;;;;;;2.85;0.60;;;12.50;99.90;;;;;;4958537;28;20035;-79
2021/05/23 10:26:01;;;;;;;3.50;0.60;;;12.70;99.90;;;;;;4931848;29;20404;-80
2021/05/23 10:28:28;;;;;;;5.60;0.77;;;13.00;99.90;;;;;;4952200;29;20130;-79
2021/05/23 10:30:56;;;;;;;3.50;0.70;;;12.90;99.90;;;;;;4953587;29;20039;-81
2021/05/23 10:33:23;;;;;;;3.53;0.70;;;12.60;99.90;;;;;;4948706;29;20560;-80
2021/05/23 10:35:51;;;;;;;7.15;0.80;;;12.90;99.90;;;;;;4933007;29;20035;-81
2021/05/23 10:38:21;;;;;;;3.53;0.70;;;13.70;99.90;;;;;;4934268;29;20040;-80
2021/05/23 10:40:59;;;;;;;2.08;0.60;;;13.60;99.90;;;;;;4933302;29;20032;-79
2021/05/23 10:43:27;;;;;;;5.82;0.60;;;13.50;99.90;;;;;;4948767;29;20107;-80
2021/05/23 10:46:08;;;;;;;4.78;0.80;;;12.90;99.90;;;;;;4934026;29;20031;-80
2021/05/23 10:48:34;;;;;;;4.72;0.60;;;12.80;99.90;;;;;;4911707;28;20110;-81
2021/05/23 10:51:13;;;;;;;4.47;0.40;;;12.50;99.90;;;;;;4970926;29;20035;-80
2021/05/23 10:53:39;;;;;;;3.05;0.40;;;12.50;99.90;;;;;;4969861;29;20023;-80
2021/05/23 10:56:05;;;;;;;3.53;0.30;;;12.60;99.90;;;;;;4971038;29;20506;-80
2021/05/23 10:58:30;;;;;;;2.80;0.50;;;13.00;99.90;;;;;;4970199;28;20031;-80
2021/05/23 11:00:58;;;;;;;3.45;0.40;;;13.40;99.90;;;;;;4967718;29;20062;-79
2021/05/23 11:03:26;;;;;;;3.42;0.30;;;13.60;99.90;;;;;;4968906;28;20035;-79
2021/05/23 11:06:03;;;;;;;4.22;0.50;;;13.80;99.90;;;;;;4976104;23;20037;-81
2021/05/23 11:08:31;;;;;;;2.45;0.40;;;13.60;99.90;;;;;;4932951;29;20071;-80
2021/05/23 11:10:56;;;;;;;2.65;0.40;;;13.30;99.90;;;;;;4955229;23;20459;-80
2021/05/23 11:13:29;;;;;;;3.20;0.43;;;13.40;99.90;;;;;;4951964;29;20035;-80
2021/05/23 11:16:07;;;;;;;1.90;0.30;;;14.40;99.90;;;;;;4952091;29;20055;-81
2021/05/23 11:18:32;;;;;;;2.95;0.40;;;14.90;99.90;;;;;;4951881;29;20039;-81
2021/05/23 11:21:07;;;;;;;3.55;0.22;;;15.20;99.90;;;;;;4952123;29;20023;-81
2021/05/23 11:23:43;;;;;;;3.50;0.20;;;15.40;99.90;;;;;;4969424;29;20090;-81
2021/05/23 11:26:17;;;;;;;2.78;0.38;;;16.00;99.90;;;;;;4966713;29;20035;-80
2021/05/23 11:28:53;;;;;;;3.28;0.30;;;15.40;99.90;;;;;;4984548;28;20042;-80
2021/05/23 11:31:26;;;;;;;0.98;0.20;;;16.40;99.90;;;;;;4967947;29;20042;-80
2021/05/23 11:33:53;;;;;;;2.88;0.30;;;16.40;99.90;;;;;;4951729;29;20039;-80
2021/05/23 11:36:20;;;;;;;3.60;0.40;;;15.50;99.90;;;;;;4935796;29;20031;-80
2021/05/23 11:38:46;;;;;;;2.75;0.30;;;14.80;99.90;;;;;;4968911;29;20103;-80
2021/05/23 11:41:12;;;;;;;2.58;0.28;;;15.10;99.90;;;;;;4967424;29;20047;-80
2021/05/23 11:43:38;;;;;;;3.22;0.40;;;15.00;99.90;;;;;;4951324;29;20039;-79
2021/05/23 11:46:06;;;;;;;3.03;0.40;;;14.40;99.90;;;;;;4951221;29;20038;-81
2021/05/23 11:48:39;;;;;;;2.75;0.40;;;14.20;99.90;;;;;;4941847;28;20062;-80
2021/05/23 11:51:11;;;;;;;2.30;0.32;;;13.80;99.90;;;;;;4949271;29;20055;-80
2021/05/23 11:53:41;;;;;;;4.82;0.50;;;13.80;99.90;;;;;;4968172;29;20083;-79
2021/05/23 11:56:09;;;;;;;5.72;0.65;;;13.80;99.90;;;;;;4968687;28;20031;-80
2021/05/23 11:58:35;;;;;;;4.18;0.35;;;13.50;99.90;;;;;;4951207;29;20038;-80
2021/05/23 12:01:12;;;;;;;3.85;0.50;;;13.40;99.90;;;;;;4968583;29;20034;-81
2021/05/23 12:03:38;;;;;;;4.82;0.50;;;13.70;99.90;;;;;;4950829;29;20036;-80
2021/05/23 12:06:03;;;;;;;4.93;0.32;;;14.50;99.90;;;;;;4950859;29;20115;-80
2021/05/23 12:08:29;;;;;;;3.25;0.30;;;15.20;99.90;;;;;;4934615;29;20035;-80
2021/05/23 12:11:06;;;;;;;2.42;0.20;;;15.40;99.90;;;;;;4966531;28;20044;-80
2021/05/23 12:13:46;;;;;;;2.33;0.25;;;15.20;99.90;;;;;;4963734;29;20039;-80
2021/05/23 12:16:17;;;;;;;1.95;0.30;;;14.70;99.90;;;;;;4950698;29;20410;-79
2021/05/23 12:18:45;;;;;;;4.25;0.40;;;14.70;99.90;;;;;;4949689;29;20043;-81
2021/05/23 12:21:16;;;;;;;3.30;0.30;;;14.90;99.90;;;;;;4950622;29;20027;-81
2021/05/23 12:23:44;;;;;;;4.13;0.22;;;15.20;99.90;;;;;;4967616;29;20039;-80
2021/05/23 12:26:15;;;;;;;3.35;0.28;;;15.70;99.90;;;;;;4949833;29;20070;-80
2021/05/23 12:28:43;;;;;;;1.33;0.20;;;16.00;99.90;;;;;;4967850;29;20055;-82
2021/05/23 12:31:11;;;;;;;2.05;0.30;;;15.30;99.90;;;;;;4950396;29;20035;-81
2021/05/23 12:33:38;;;;;;;2.28;0.20;;;14.30;99.90;;;;;;4931121;29;20128;-80
2021/05/23 12:36:09;;;;;;;3.67;0.30;;;14.40;99.90;;;;;;4931150;29;20084;-81
2021/05/23 12:38:35;;;;;;;1.52;0.25;;;14.70;99.90;;;;;;4931495;29;20035;-81
2021/05/23 12:41:01;;;;;;;1.85;0.20;;;15.60;99.90;;;;;;4946985;29;20089;-80
2021/05/23 12:43:31;;;;;;;4.53;0.30;;;15.30;99.90;;;;;;4930974;29;20155;-80
2021/05/23 12:46:01;;;;;;;;;;;14.70;99.90;;;;;;4965318;28;20071;-80
2021/05/23 12:48:34;;;;;;;2.92;0.30;;;14.90;99.90;;;;;;4944117;28;19919;-81